sensor_id;sensor_type;location;lat;lon;timestamp;P1;durP1;ratioP1;P2;durP2;ratioP2
57327;SDS011;43162;51.040;18.244;2023-04-08T00:00:17;22.30;;;12.30;;
57327;SDS011;43162;51.040;18.244;2023-04-08T00:02:42;21.40;;;11.60;;
57327;SDS011;43162;51.040;18.244;2023-04-08T00:05:08;13.70;;;9.60;;
57327;SDS011;43162;51.040;18.244;2023-04-08T00:07:34;16.40;;;9.20;;
57327;SDS011;43162;51.040;18.244;2023-04-08T00:10:00;16.90;;;10.40;;
57327;SDS011;43162;51.040;18.244;2023-04-08T00:12:25;20.00;;;10.40;;
57327;SDS011;43162;51.040;18.244;2023-04-08T00:14:51;17.10;;;10.50;;
57327;SDS011;43162;51.040;18.244;2023-04-08T00:17:17;18.30;;;11.00;;
57327;SDS011;43162;51.040;18.244;2023-04-08T00:19:42;17.60;;;9.70;;
57327;SDS011;43162;51.040;18.244;2023-04-08T00:22:09;22.40;;;10.80;;
57327;SDS011;43162;51.040;18.244;2023-04-08T00:24:35;15.70;;;9.70;;
57327;SDS011;43162;51.040;18.244;2023-04-08T00:27:01;20.00;;;12.10;;
57327;SDS011;43162;51.040;18.244;2023-04-08T00:29:27;23.80;;;12.10;;
57327;SDS011;43162;51.040;18.244;2023-04-08T00:31:53;18.40;;;10.80;;
57327;SDS011;43162;51.040;18.244;2023-04-08T00:34:18;27.80;;;11.80;;
57327;SDS011;43162;51.040;18.244;2023-04-08T00:36:44;20.70;;;11.70;;
57327;SDS011;43162;51.040;18.244;2023-04-08T00:39:12;19.90;;;11.00;;
57327;SDS011;43162;51.040;18.244;2023-04-08T00:41:38;15.20;;;9.60;;
57327;SDS011;43162;51.040;18.244;2023-04-08T00:44:04;22.90;;;10.70;;
57327;SDS011;43162;51.040;18.244;2023-04-08T00:46:33;21.50;;;12.30;;
57327;SDS011;43162;51.040;18.244;2023-04-08T00:49:01;22.70;;;11.10;;
57327;SDS011;43162;51.040;18.244;2023-04-08T00:51:29;17.10;;;9.90;;
57327;SDS011;43162;51.040;18.244;2023-04-08T00:53:56;21.20;;;11.20;;
57327;SDS011;43162;51.040;18.244;2023-04-08T00:56:21;22.30;;;13.20;;
57327;SDS011;43162;51.040;18.244;2023-04-08T00:58:48;20.60;;;11.80;;
57327;SDS011;43162;51.040;18.244;2023-04-08T01:01:19;20.30;;;11.90;;
57327;SDS011;43162;51.040;18.244;2023-04-08T01:04:12;21.00;;;12.40;;
57327;SDS011;43162;51.040;18.244;2023-04-08T01:06:45;20.30;;;13.50;;
57327;SDS011;43162;51.040;18.244;2023-04-08T01:09:16;20.20;;;11.80;;
57327;SDS011;43162;51.040;18.244;2023-04-08T01:11:43;18.70;;;11.00;;
57327;SDS011;43162;51.040;18.244;2023-04-08T01:14:11;21.30;;;12.10;;
57327;SDS011;43162;51.040;18.244;2023-04-08T01:16:42;23.20;;;13.40;;
57327;SDS011;43162;51.040;18.244;2023-04-08T01:19:09;20.50;;;12.20;;
57327;SDS011;43162;51.040;18.244;2023-04-08T01:21:42;21.30;;;11.60;;
57327;SDS011;43162;51.040;18.244;2023-04-08T01:27:04;20.40;;;13.60;;
57327;SDS011;43162;51.040;18.244;2023-04-08T01:29:31;22.70;;;14.80;;
57327;SDS011;43162;51.040;18.244;2023-04-08T01:31:58;18.60;;;11.30;;
57327;SDS011;43162;51.040;18.244;2023-04-08T01:34:27;22.90;;;13.20;;
57327;SDS011;43162;51.040;18.244;2023-04-08T01:36:54;29.70;;;14.50;;
57327;SDS011;43162;51.040;18.244;2023-04-08T01:39:20;23.90;;;14.70;;
57327;SDS011;43162;51.040;18.244;2023-04-08T01:41:46;22.20;;;13.30;;
57327;SDS011;43162;51.040;18.244;2023-04-08T01:44:12;18.40;;;11.80;;
57327;SDS011;43162;51.040;18.244;2023-04-08T01:46:38;19.80;;;12.30;;
57327;SDS011;43162;51.040;18.244;2023-04-08T01:49:06;18.90;;;13.00;;
57327;SDS011;43162;51.040;18.244;2023-04-08T01:51:33;17.40;;;11.80;;
57327;SDS011;43162;51.040;18.244;2023-04-08T01:53:59;22.30;;;13.20;;
57327;SDS011;43162;51.040;18.244;2023-04-08T01:56:25;23.60;;;15.00;;
57327;SDS011;43162;51.040;18.244;2023-04-08T01:58:53;26.00;;;15.00;;
57327;SDS011;43162;51.040;18.244;2023-04-08T02:01:21;25.70;;;15.00;;
57327;SDS011;43162;51.040;18.244;2023-04-08T02:03:48;23.90;;;15.00;;
57327;SDS011;43162;51.040;18.244;2023-04-08T02:06:20;24.90;;;15.30;;
57327;SDS011;43162;51.040;18.244;2023-04-08T02:08:45;26.00;;;14.70;;
57327;SDS011;43162;51.040;18.244;2023-04-08T02:11:11;27.10;;;14.80;;
57327;SDS011;43162;51.040;18.244;2023-04-08T02:13:37;21.90;;;13.00;;
57327;SDS011;43162;51.040;18.244;2023-04-08T02:16:03;19.90;;;12.70;;
57327;SDS011;43162;51.040;18.244;2023-04-08T02:18:35;17.70;;;11.10;;
57327;SDS011;43162;51.040;18.244;2023-04-08T02:21:07;19.40;;;13.80;;
57327;SDS011;43162;51.040;18.244;2023-04-08T02:23:40;24.50;;;14.20;;
57327;SDS011;43162;51.040;18.244;2023-04-08T02:26:07;23.30;;;13.80;;
57327;SDS011;43162;51.040;18.244;2023-04-08T02:28:38;29.00;;;15.40;;
57327;SDS011;43162;51.040;18.244;2023-04-08T02:31:10;28.90;;;15.30;;
57327;SDS011;43162;51.040;18.244;2023-04-08T02:33:38;19.30;;;11.60;;
57327;SDS011;43162;51.040;18.244;2023-04-08T02:36:04;23.80;;;14.40;;
57327;SDS011;43162;51.040;18.244;2023-04-08T02:38:31;25.60;;;14.80;;
57327;SDS011;43162;51.040;18.244;2023-04-08T02:40:56;29.50;;;18.40;;
57327;SDS011;43162;51.040;18.244;2023-04-08T02:43:23;31.50;;;17.10;;
57327;SDS011;43162;51.040;18.244;2023-04-08T02:45:56;29.60;;;17.40;;
57327;SDS011;43162;51.040;18.244;2023-04-08T02:48:21;29.70;;;18.40;;
57327;SDS011;43162;51.040;18.244;2023-04-08T02:50:47;30.50;;;18.10;;
57327;SDS011;43162;51.040;18.244;2023-04-08T02:53:13;33.80;;;18.70;;
57327;SDS011;43162;51.040;18.244;2023-04-08T02:55:38;35.50;;;18.60;;
57327;SDS011;43162;51.040;18.244;2023-04-08T02:58:04;30.80;;;17.00;;
57327;SDS011;43162;51.040;18.244;2023-04-08T03:00:30;28.90;;;16.80;;
57327;SDS011;43162;51.040;18.244;2023-04-08T03:02:56;30.30;;;17.90;;
57327;SDS011;43162;51.040;18.244;2023-04-08T03:05:21;29.40;;;16.50;;
57327;SDS011;43162;51.040;18.244;2023-04-08T03:07:47;27.90;;;16.40;;
57327;SDS011;43162;51.040;18.244;2023-04-08T03:10:13;35.30;;;17.30;;
57327;SDS011;43162;51.040;18.244;2023-04-08T03:12:38;31.20;;;18.50;;
57327;SDS011;43162;51.040;18.244;2023-04-08T03:15:04;36.80;;;19.20;;
57327;SDS011;43162;51.040;18.244;2023-04-08T03:17:30;38.50;;;19.40;;
57327;SDS011;43162;51.040;18.244;2023-04-08T03:19:59;34.10;;;17.80;;
57327;SDS011;43162;51.040;18.244;2023-04-08T03:22:25;32.00;;;18.40;;
57327;SDS011;43162;51.040;18.244;2023-04-08T03:24:51;34.90;;;19.80;;
57327;SDS011;43162;51.040;18.244;2023-04-08T03:27:16;30.90;;;17.30;;
57327;SDS011;43162;51.040;18.244;2023-04-08T03:29:42;29.70;;;17.20;;
57327;SDS011;43162;51.040;18.244;2023-04-08T03:32:09;29.90;;;15.80;;
57327;SDS011;43162;51.040;18.244;2023-04-08T03:34:35;26.80;;;13.50;;
57327;SDS011;43162;51.040;18.244;2023-04-08T03:37:01;19.90;;;11.80;;
57327;SDS011;43162;51.040;18.244;2023-04-08T03:39:26;25.30;;;14.00;;
57327;SDS011;43162;51.040;18.244;2023-04-08T03:41:52;30.40;;;16.80;;
57327;SDS011;43162;51.040;18.244;2023-04-08T03:44:18;28.40;;;17.40;;
57327;SDS011;43162;51.040;18.244;2023-04-08T03:46:44;29.80;;;16.50;;
57327;SDS011;43162;51.040;18.244;2023-04-08T03:49:09;31.50;;;18.20;;
57327;SDS011;43162;51.040;18.244;2023-04-08T03:51:35;36.30;;;19.60;;
57327;SDS011;43162;51.040;18.244;2023-04-08T03:54:00;29.10;;;15.60;;
57327;SDS011;43162;51.040;18.244;2023-04-08T03:56:26;30.60;;;18.10;;
57327;SDS011;43162;51.040;18.244;2023-04-08T03:58:52;23.30;;;14.50;;
57327;SDS011;43162;51.040;18.244;2023-04-08T04:01:18;22.30;;;13.70;;
57327;SDS011;43162;51.040;18.244;2023-04-08T04:03:43;20.60;;;13.00;;
57327;SDS011;43162;51.040;18.244;2023-04-08T04:06:09;25.10;;;15.00;;
57327;SDS011;43162;51.040;18.244;2023-04-08T04:08:35;16.70;;;10.50;;
57327;SDS011;43162;51.040;18.244;2023-04-08T04:11:01;23.80;;;14.40;;
57327;SDS011;43162;51.040;18.244;2023-04-08T04:13:26;28.00;;;14.60;;
57327;SDS011;43162;51.040;18.244;2023-04-08T04:15:52;19.40;;;12.50;;
57327;SDS011;43162;51.040;18.244;2023-04-08T04:18:17;21.30;;;13.10;;
57327;SDS011;43162;51.040;18.244;2023-04-08T04:20:43;24.20;;;16.20;;
57327;SDS011;43162;51.040;18.244;2023-04-08T04:23:09;22.40;;;13.70;;
57327;SDS011;43162;51.040;18.244;2023-04-08T04:25:35;21.20;;;13.20;;
57327;SDS011;43162;51.040;18.244;2023-04-08T04:28:00;24.30;;;13.90;;
57327;SDS011;43162;51.040;18.244;2023-04-08T04:30:27;24.10;;;13.90;;
57327;SDS011;43162;51.040;18.244;2023-04-08T04:32:53;20.90;;;12.50;;
57327;SDS011;43162;51.040;18.244;2023-04-08T04:35:19;22.30;;;14.10;;
57327;SDS011;43162;51.040;18.244;2023-04-08T04:37:44;22.10;;;12.40;;
57327;SDS011;43162;51.040;18.244;2023-04-08T04:40:11;25.50;;;14.90;;
57327;SDS011;43162;51.040;18.244;2023-04-08T04:42:37;18.90;;;12.80;;
57327;SDS011;43162;51.040;18.244;2023-04-08T04:45:03;19.80;;;12.30;;
57327;SDS011;43162;51.040;18.244;2023-04-08T04:47:29;19.10;;;11.00;;
57327;SDS011;43162;51.040;18.244;2023-04-08T04:49:56;17.90;;;12.00;;
57327;SDS011;43162;51.040;18.244;2023-04-08T04:52:22;19.80;;;13.10;;
57327;SDS011;43162;51.040;18.244;2023-04-08T04:54:47;22.30;;;14.20;;
57327;SDS011;43162;51.040;18.244;2023-04-08T04:57:13;21.00;;;13.70;;
57327;SDS011;43162;51.040;18.244;2023-04-08T04:59:40;15.00;;;10.60;;
57327;SDS011;43162;51.040;18.244;2023-04-08T05:02:05;19.90;;;9.30;;
57327;SDS011;43162;51.040;18.244;2023-04-08T05:04:31;19.60;;;12.70;;
57327;SDS011;43162;51.040;18.244;2023-04-08T05:06:59;17.60;;;10.00;;
57327;SDS011;43162;51.040;18.244;2023-04-08T05:09:25;15.90;;;9.50;;
57327;SDS011;43162;51.040;18.244;2023-04-08T05:11:51;15.80;;;10.30;;
57327;SDS011;43162;51.040;18.244;2023-04-08T05:14:16;20.80;;;13.10;;
57327;SDS011;43162;51.040;18.244;2023-04-08T05:16:42;15.80;;;9.80;;
57327;SDS011;43162;51.040;18.244;2023-04-08T05:19:08;14.50;;;9.90;;
57327;SDS011;43162;51.040;18.244;2023-04-08T05:21:34;12.80;;;8.30;;
57327;SDS011;43162;51.040;18.244;2023-04-08T05:24:00;16.60;;;10.00;;
57327;SDS011;43162;51.040;18.244;2023-04-08T05:26:25;15.80;;;10.00;;
57327;SDS011;43162;51.040;18.244;2023-04-08T05:28:51;13.50;;;9.20;;
57327;SDS011;43162;51.040;18.244;2023-04-08T05:31:17;10.80;;;7.70;;
57327;SDS011;43162;51.040;18.244;2023-04-08T05:33:43;16.70;;;10.20;;
57327;SDS011;43162;51.040;18.244;2023-04-08T05:36:12;12.20;;;8.70;;
57327;SDS011;43162;51.040;18.244;2023-04-08T05:38:38;15.30;;;9.10;;
57327;SDS011;43162;51.040;18.244;2023-04-08T05:41:05;14.40;;;9.40;;
57327;SDS011;43162;51.040;18.244;2023-04-08T05:43:33;17.10;;;8.60;;
57327;SDS011;43162;51.040;18.244;2023-04-08T05:46:04;11.60;;;7.20;;
57327;SDS011;43162;51.040;18.244;2023-04-08T05:48:33;11.90;;;8.30;;
57327;SDS011;43162;51.040;18.244;2023-04-08T05:50:59;18.80;;;11.40;;
57327;SDS011;43162;51.040;18.244;2023-04-08T05:53:25;14.70;;;9.20;;
57327;SDS011;43162;51.040;18.244;2023-04-08T05:55:50;12.10;;;8.70;;
57327;SDS011;43162;51.040;18.244;2023-04-08T05:58:16;14.50;;;10.50;;
57327;SDS011;43162;51.040;18.244;2023-04-08T06:00:42;14.80;;;10.80;;
57327;SDS011;43162;51.040;18.244;2023-04-08T06:03:08;15.50;;;9.90;;
57327;SDS011;43162;51.040;18.244;2023-04-08T06:05:34;14.60;;;9.70;;
57327;SDS011;43162;51.040;18.244;2023-04-08T06:08:00;16.60;;;10.40;;
57327;SDS011;43162;51.040;18.244;2023-04-08T06:10:25;15.10;;;10.90;;
57327;SDS011;43162;51.040;18.244;2023-04-08T06:12:51;18.40;;;12.50;;
57327;SDS011;43162;51.040;18.244;2023-04-08T06:15:16;22.60;;;12.20;;
57327;SDS011;43162;51.040;18.244;2023-04-08T06:17:42;20.80;;;14.10;;
57327;SDS011;43162;51.040;18.244;2023-04-08T06:20:08;18.10;;;10.20;;
57327;SDS011;43162;51.040;18.244;2023-04-08T06:22:35;12.60;;;8.30;;
57327;SDS011;43162;51.040;18.244;2023-04-08T06:25:01;11.00;;;6.90;;
57327;SDS011;43162;51.040;18.244;2023-04-08T06:27:27;10.30;;;6.80;;
57327;SDS011;43162;51.040;18.244;2023-04-08T06:29:52;9.30;;;6.50;;
57327;SDS011;43162;51.040;18.244;2023-04-08T06:32:20;7.60;;;5.30;;
57327;SDS011;43162;51.040;18.244;2023-04-08T06:34:46;9.30;;;7.20;;
57327;SDS011;43162;51.040;18.244;2023-04-08T06:37:12;10.70;;;7.80;;
57327;SDS011;43162;51.040;18.244;2023-04-08T06:39:38;7.80;;;6.10;;
57327;SDS011;43162;51.040;18.244;2023-04-08T06:42:04;11.50;;;6.80;;
57327;SDS011;43162;51.040;18.244;2023-04-08T06:44:30;10.20;;;6.60;;
57327;SDS011;43162;51.040;18.244;2023-04-08T06:46:56;9.80;;;6.60;;
57327;SDS011;43162;51.040;18.244;2023-04-08T06:49:22;14.40;;;9.70;;
57327;SDS011;43162;51.040;18.244;2023-04-08T06:51:47;11.10;;;6.80;;
57327;SDS011;43162;51.040;18.244;2023-04-08T06:54:13;10.00;;;7.60;;
57327;SDS011;43162;51.040;18.244;2023-04-08T06:56:39;10.70;;;6.70;;
57327;SDS011;43162;51.040;18.244;2023-04-08T06:59:05;13.10;;;9.00;;
57327;SDS011;43162;51.040;18.244;2023-04-08T07:01:31;12.10;;;9.40;;
57327;SDS011;43162;51.040;18.244;2023-04-08T07:03:56;14.30;;;10.30;;
57327;SDS011;43162;51.040;18.244;2023-04-08T07:06:22;11.20;;;8.70;;
57327;SDS011;43162;51.040;18.244;2023-04-08T07:08:48;10.90;;;8.40;;
57327;SDS011;43162;51.040;18.244;2023-04-08T07:11:14;17.60;;;10.80;;
57327;SDS011;43162;51.040;18.244;2023-04-08T07:13:41;14.20;;;11.00;;
57327;SDS011;43162;51.040;18.244;2023-04-08T07:16:07;14.60;;;11.30;;
57327;SDS011;43162;51.040;18.244;2023-04-08T07:18:33;10.50;;;9.10;;
57327;SDS011;43162;51.040;18.244;2023-04-08T07:20:59;14.00;;;10.40;;
57327;SDS011;43162;51.040;18.244;2023-04-08T07:23:26;12.30;;;8.70;;
57327;SDS011;43162;51.040;18.244;2023-04-08T07:25:52;14.40;;;10.80;;
57327;SDS011;43162;51.040;18.244;2023-04-08T07:28:18;14.40;;;8.50;;
57327;SDS011;43162;51.040;18.244;2023-04-08T07:30:45;12.60;;;8.80;;
57327;SDS011;43162;51.040;18.244;2023-04-08T07:33:11;13.90;;;8.90;;
57327;SDS011;43162;51.040;18.244;2023-04-08T07:35:36;9.30;;;6.90;;
57327;SDS011;43162;51.040;18.244;2023-04-08T07:38:02;12.10;;;7.60;;
57327;SDS011;43162;51.040;18.244;2023-04-08T07:40:28;12.70;;;8.70;;
57327;SDS011;43162;51.040;18.244;2023-04-08T07:42:54;14.20;;;8.70;;
57327;SDS011;43162;51.040;18.244;2023-04-08T07:45:20;13.90;;;9.30;;
57327;SDS011;43162;51.040;18.244;2023-04-08T07:47:46;12.10;;;9.60;;
57327;SDS011;43162;51.040;18.244;2023-04-08T07:50:12;14.80;;;9.40;;
57327;SDS011;43162;51.040;18.244;2023-04-08T07:52:38;14.20;;;8.70;;
57327;SDS011;43162;51.040;18.244;2023-04-08T07:55:03;12.20;;;9.00;;
57327;SDS011;43162;51.040;18.244;2023-04-08T07:57:30;14.20;;;9.50;;
57327;SDS011;43162;51.040;18.244;2023-04-08T07:59:56;12.40;;;8.70;;
57327;SDS011;43162;51.040;18.244;2023-04-08T08:02:22;12.70;;;8.70;;
57327;SDS011;43162;51.040;18.244;2023-04-08T08:04:47;12.20;;;8.60;;
57327;SDS011;43162;51.040;18.244;2023-04-08T08:07:13;10.10;;;7.90;;
57327;SDS011;43162;51.040;18.244;2023-04-08T08:09:39;10.30;;;7.20;;
57327;SDS011;43162;51.040;18.244;2023-04-08T08:12:05;9.80;;;7.30;;
57327;SDS011;43162;51.040;18.244;2023-04-08T08:14:31;11.60;;;8.10;;
57327;SDS011;43162;51.040;18.244;2023-04-08T08:16:56;12.30;;;8.30;;
57327;SDS011;43162;51.040;18.244;2023-04-08T08:19:22;10.20;;;8.10;;
57327;SDS011;43162;51.040;18.244;2023-04-08T08:21:48;11.40;;;8.60;;
57327;SDS011;43162;51.040;18.244;2023-04-08T08:24:14;13.10;;;9.60;;
57327;SDS011;43162;51.040;18.244;2023-04-08T08:26:40;10.80;;;7.50;;
57327;SDS011;43162;51.040;18.244;2023-04-08T08:29:06;10.40;;;8.50;;
57327;SDS011;43162;51.040;18.244;2023-04-08T08:31:36;11.20;;;8.60;;
57327;SDS011;43162;51.040;18.244;2023-04-08T08:34:01;10.70;;;7.40;;
57327;SDS011;43162;51.040;18.244;2023-04-08T08:36:27;9.60;;;7.00;;
57327;SDS011;43162;51.040;18.244;2023-04-08T08:38:53;13.70;;;7.50;;
57327;SDS011;43162;51.040;18.244;2023-04-08T08:41:20;9.80;;;7.10;;
57327;SDS011;43162;51.040;18.244;2023-04-08T08:43:45;8.50;;;6.00;;
57327;SDS011;43162;51.040;18.244;2023-04-08T08:46:12;11.80;;;7.50;;
57327;SDS011;43162;51.040;18.244;2023-04-08T08:48:40;10.10;;;8.80;;
57327;SDS011;43162;51.040;18.244;2023-04-08T08:51:07;11.20;;;8.80;;
57327;SDS011;43162;51.040;18.244;2023-04-08T08:53:36;12.00;;;7.60;;
57327;SDS011;43162;51.040;18.244;2023-04-08T08:56:02;14.40;;;9.60;;
57327;SDS011;43162;51.040;18.244;2023-04-08T08:58:29;12.00;;;9.40;;
57327;SDS011;43162;51.040;18.244;2023-04-08T09:00:55;11.70;;;8.50;;
57327;SDS011;43162;51.040;18.244;2023-04-08T09:03:21;12.40;;;9.20;;
57327;SDS011;43162;51.040;18.244;2023-04-08T09:11:19;9.00;;;7.90;;
57327;SDS011;43162;51.040;18.244;2023-04-08T09:13:46;10.90;;;7.40;;
57327;SDS011;43162;51.040;18.244;2023-04-08T09:16:13;9.10;;;6.30;;
57327;SDS011;43162;51.040;18.244;2023-04-08T09:18:42;11.70;;;9.10;;
57327;SDS011;43162;51.040;18.244;2023-04-08T09:21:10;10.90;;;8.60;;
57327;SDS011;43162;51.040;18.244;2023-04-08T09:23:43;9.60;;;7.80;;
57327;SDS011;43162;51.040;18.244;2023-04-08T09:26:16;7.60;;;6.50;;
57327;SDS011;43162;51.040;18.244;2023-04-08T09:31:30;9.30;;;7.70;;
57327;SDS011;43162;51.040;18.244;2023-04-08T09:33:58;11.00;;;6.90;;
57327;SDS011;43162;51.040;18.244;2023-04-08T09:36:33;8.80;;;7.10;;
57327;SDS011;43162;51.040;18.244;2023-04-08T09:38:59;10.00;;;7.60;;
57327;SDS011;43162;51.040;18.244;2023-04-08T09:41:26;9.20;;;6.40;;
57327;SDS011;43162;51.040;18.244;2023-04-08T09:43:53;10.20;;;8.20;;
57327;SDS011;43162;51.040;18.244;2023-04-08T09:46:28;11.40;;;9.50;;
57327;SDS011;43162;51.040;18.244;2023-04-08T09:55:00;11.50;;;8.70;;
57327;SDS011;43162;51.040;18.244;2023-04-08T10:05:12;10.80;;;8.60;;
57327;SDS011;43162;51.040;18.244;2023-04-08T10:07:39;12.10;;;10.00;;
57327;SDS011;43162;51.040;18.244;2023-04-08T10:10:06;12.00;;;10.10;;
57327;SDS011;43162;51.040;18.244;2023-04-08T10:12:36;15.20;;;10.80;;
57327;SDS011;43162;51.040;18.244;2023-04-08T10:15:21;11.80;;;8.90;;
57327;SDS011;43162;51.040;18.244;2023-04-08T10:17:54;16.00;;;10.00;;
57327;SDS011;43162;51.040;18.244;2023-04-08T10:23:02;12.90;;;9.10;;
57327;SDS011;43162;51.040;18.244;2023-04-08T10:25:35;12.80;;;9.60;;
57327;SDS011;43162;51.040;18.244;2023-04-08T10:30:40;15.20;;;9.30;;
57327;SDS011;43162;51.040;18.244;2023-04-08T10:35:52;9.80;;;8.40;;
57327;SDS011;43162;51.040;18.244;2023-04-08T10:38:19;11.20;;;9.30;;
57327;SDS011;43162;51.040;18.244;2023-04-08T10:40:46;10.30;;;7.30;;
57327;SDS011;43162;51.040;18.244;2023-04-08T10:43:12;11.00;;;8.20;;
57327;SDS011;43162;51.040;18.244;2023-04-08T10:45:39;13.50;;;8.30;;
57327;SDS011;43162;51.040;18.244;2023-04-08T10:50:42;12.10;;;9.80;;
57327;SDS011;43162;51.040;18.244;2023-04-08T10:55:51;10.90;;;8.70;;
57327;SDS011;43162;51.040;18.244;2023-04-08T10:58:17;10.70;;;7.70;;
57327;SDS011;43162;51.040;18.244;2023-04-08T11:00:42;16.90;;;10.10;;
57327;SDS011;43162;51.040;18.244;2023-04-08T11:03:09;11.60;;;9.80;;
57327;SDS011;43162;51.040;18.244;2023-04-08T11:05:36;11.80;;;8.70;;
57327;SDS011;43162;51.040;18.244;2023-04-08T11:08:03;11.30;;;9.70;;
57327;SDS011;43162;51.040;18.244;2023-04-08T11:10:30;8.90;;;7.30;;
57327;SDS011;43162;51.040;18.244;2023-04-08T11:12:56;9.80;;;7.10;;
57327;SDS011;43162;51.040;18.244;2023-04-08T11:15:25;8.90;;;7.10;;
57327;SDS011;43162;51.040;18.244;2023-04-08T11:17:54;10.40;;;9.00;;
57327;SDS011;43162;51.040;18.244;2023-04-08T11:20:20;11.70;;;9.90;;
57327;SDS011;43162;51.040;18.244;2023-04-08T11:22:46;10.80;;;8.80;;
57327;SDS011;43162;51.040;18.244;2023-04-08T11:25:12;11.30;;;8.50;;
57327;SDS011;43162;51.040;18.244;2023-04-08T11:27:39;10.90;;;8.90;;
57327;SDS011;43162;51.040;18.244;2023-04-08T11:30:08;14.40;;;9.10;;
57327;SDS011;43162;51.040;18.244;2023-04-08T11:32:35;11.70;;;9.40;;
57327;SDS011;43162;51.040;18.244;2023-04-08T11:35:05;13.90;;;10.00;;
57327;SDS011;43162;51.040;18.244;2023-04-08T11:37:40;9.80;;;8.80;;
57327;SDS011;43162;51.040;18.244;2023-04-08T11:40:09;12.20;;;9.80;;
57327;SDS011;43162;51.040;18.244;2023-04-08T11:42:36;13.50;;;9.90;;
57327;SDS011;43162;51.040;18.244;2023-04-08T11:45:10;11.60;;;9.80;;
57327;SDS011;43162;51.040;18.244;2023-04-08T11:47:38;12.70;;;10.30;;
57327;SDS011;43162;51.040;18.244;2023-04-08T11:50:04;12.90;;;10.30;;
57327;SDS011;43162;51.040;18.244;2023-04-08T11:52:47;12.20;;;10.60;;
57327;SDS011;43162;51.040;18.244;2023-04-08T11:57:52;12.90;;;10.50;;
57327;SDS011;43162;51.040;18.244;2023-04-08T12:00:20;13.40;;;11.50;;
57327;SDS011;43162;51.040;18.244;2023-04-08T12:02:46;14.50;;;11.10;;
57327;SDS011;43162;51.040;18.244;2023-04-08T12:05:15;14.50;;;11.50;;
57327;SDS011;43162;51.040;18.244;2023-04-08T12:07:41;11.40;;;10.10;;
57327;SDS011;43162;51.040;18.244;2023-04-08T12:10:10;12.50;;;10.50;;
57327;SDS011;43162;51.040;18.244;2023-04-08T12:12:37;12.00;;;10.00;;
57327;SDS011;43162;51.040;18.244;2023-04-08T12:15:03;12.80;;;10.30;;
57327;SDS011;43162;51.040;18.244;2023-04-08T12:17:29;9.80;;;8.90;;
57327;SDS011;43162;51.040;18.244;2023-04-08T12:19:55;13.00;;;10.30;;
57327;SDS011;43162;51.040;18.244;2023-04-08T12:22:21;12.00;;;10.50;;
57327;SDS011;43162;51.040;18.244;2023-04-08T12:24:47;11.40;;;10.10;;
57327;SDS011;43162;51.040;18.244;2023-04-08T12:27:13;10.60;;;9.40;;
57327;SDS011;43162;51.040;18.244;2023-04-08T12:29:38;11.00;;;9.50;;
57327;SDS011;43162;51.040;18.244;2023-04-08T12:32:04;13.60;;;10.00;;
57327;SDS011;43162;51.040;18.244;2023-04-08T12:34:30;11.90;;;10.50;;
57327;SDS011;43162;51.040;18.244;2023-04-08T12:36:57;12.50;;;11.10;;
57327;SDS011;43162;51.040;18.244;2023-04-08T12:39:23;11.60;;;10.50;;
57327;SDS011;43162;51.040;18.244;2023-04-08T12:41:49;11.50;;;9.00;;
57327;SDS011;43162;51.040;18.244;2023-04-08T12:44:14;13.40;;;10.20;;
57327;SDS011;43162;51.040;18.244;2023-04-08T12:46:40;12.30;;;10.90;;
57327;SDS011;43162;51.040;18.244;2023-04-08T12:49:06;13.00;;;10.20;;
57327;SDS011;43162;51.040;18.244;2023-04-08T12:51:33;10.70;;;8.90;;
57327;SDS011;43162;51.040;18.244;2023-04-08T12:54:00;14.30;;;10.20;;
57327;SDS011;43162;51.040;18.244;2023-04-08T12:56:28;11.50;;;9.80;;
57327;SDS011;43162;51.040;18.244;2023-04-08T12:58:54;12.70;;;10.40;;
57327;SDS011;43162;51.040;18.244;2023-04-08T13:01:20;12.40;;;10.20;;
57327;SDS011;43162;51.040;18.244;2023-04-08T13:03:46;11.00;;;9.40;;
57327;SDS011;43162;51.040;18.244;2023-04-08T13:06:12;13.60;;;9.80;;
57327;SDS011;43162;51.040;18.244;2023-04-08T13:08:38;12.80;;;10.70;;
57327;SDS011;43162;51.040;18.244;2023-04-08T13:11:04;13.70;;;10.50;;
57327;SDS011;43162;51.040;18.244;2023-04-08T13:13:29;13.80;;;9.70;;
57327;SDS011;43162;51.040;18.244;2023-04-08T13:15:55;12.90;;;10.80;;
57327;SDS011;43162;51.040;18.244;2023-04-08T13:18:22;15.40;;;10.80;;
57327;SDS011;43162;51.040;18.244;2023-04-08T13:20:47;10.40;;;9.20;;
57327;SDS011;43162;51.040;18.244;2023-04-08T13:23:13;11.20;;;10.00;;
57327;SDS011;43162;51.040;18.244;2023-04-08T13:25:39;13.00;;;10.90;;
57327;SDS011;43162;51.040;18.244;2023-04-08T13:28:05;13.70;;;11.70;;
57327;SDS011;43162;51.040;18.244;2023-04-08T13:30:31;11.70;;;9.80;;
57327;SDS011;43162;51.040;18.244;2023-04-08T13:32:56;13.20;;;11.10;;
57327;SDS011;43162;51.040;18.244;2023-04-08T13:35:22;13.60;;;9.90;;
57327;SDS011;43162;51.040;18.244;2023-04-08T13:37:47;11.30;;;9.70;;
57327;SDS011;43162;51.040;18.244;2023-04-08T13:40:13;12.70;;;11.10;;
57327;SDS011;43162;51.040;18.244;2023-04-08T13:42:39;13.10;;;10.60;;
57327;SDS011;43162;51.040;18.244;2023-04-08T13:45:05;13.20;;;10.60;;
57327;SDS011;43162;51.040;18.244;2023-04-08T13:47:31;13.70;;;11.10;;
57327;SDS011;43162;51.040;18.244;2023-04-08T13:49:57;14.10;;;11.40;;
57327;SDS011;43162;51.040;18.244;2023-04-08T13:52:23;12.30;;;10.00;;
57327;SDS011;43162;51.040;18.244;2023-04-08T13:54:48;13.90;;;10.60;;
57327;SDS011;43162;51.040;18.244;2023-04-08T13:57:14;13.90;;;11.20;;
57327;SDS011;43162;51.040;18.244;2023-04-08T13:59:39;13.30;;;10.80;;
57327;SDS011;43162;51.040;18.244;2023-04-08T14:02:05;13.30;;;11.80;;
57327;SDS011;43162;51.040;18.244;2023-04-08T14:04:30;14.80;;;11.30;;
57327;SDS011;43162;51.040;18.244;2023-04-08T14:06:57;11.70;;;10.00;;
57327;SDS011;43162;51.040;18.244;2023-04-08T14:09:23;12.80;;;10.30;;
57327;SDS011;43162;51.040;18.244;2023-04-08T14:11:48;15.20;;;12.10;;
57327;SDS011;43162;51.040;18.244;2023-04-08T14:14:14;15.70;;;12.40;;
57327;SDS011;43162;51.040;18.244;2023-04-08T14:16:40;15.90;;;12.40;;
57327;SDS011;43162;51.040;18.244;2023-04-08T14:19:06;13.90;;;11.10;;
57327;SDS011;43162;51.040;18.244;2023-04-08T14:21:32;18.20;;;12.30;;
57327;SDS011;43162;51.040;18.244;2023-04-08T14:23:58;15.90;;;12.50;;
57327;SDS011;43162;51.040;18.244;2023-04-08T14:26:24;16.30;;;12.00;;
57327;SDS011;43162;51.040;18.244;2023-04-08T14:28:50;13.00;;;10.30;;
57327;SDS011;43162;51.040;18.244;2023-04-08T14:31:16;15.20;;;11.20;;
57327;SDS011;43162;51.040;18.244;2023-04-08T14:33:41;18.40;;;12.10;;
57327;SDS011;43162;51.040;18.244;2023-04-08T14:36:07;12.70;;;11.30;;
57327;SDS011;43162;51.040;18.244;2023-04-08T14:38:34;12.90;;;11.10;;
57327;SDS011;43162;51.040;18.244;2023-04-08T14:41:00;12.80;;;11.30;;
57327;SDS011;43162;51.040;18.244;2023-04-08T14:43:26;13.50;;;11.30;;
57327;SDS011;43162;51.040;18.244;2023-04-08T14:45:51;12.70;;;10.30;;
57327;SDS011;43162;51.040;18.244;2023-04-08T14:48:17;15.60;;;10.70;;
57327;SDS011;43162;51.040;18.244;2023-04-08T14:50:43;14.00;;;11.40;;
57327;SDS011;43162;51.040;18.244;2023-04-08T14:53:09;15.60;;;11.90;;